Fetters Hot Springs, California
Current Conditions -  °F | °C
As of 5:35 PM on Saturday 25 Oct 2014 (Local Time) from KO69 Reporting Station
Overcast Overcast  
Wind Chill: 64°   Ceiling: 2800
Heat Index: 64°   Visibility: 7mi
Dew Point: 54°   Wind: 8mph
Humidity: 68%   Direction: 250°WSW
Pressure: 30.07"   Gusts: NA
Location:  38.3176°N, 122.485°W
Report Text: KO69 260035Z AUTO 25007KT 7SM BKN028 BKN034 OVC055 18/12 A3007 RMK AO1
Loading
Personal Weather Stations






























Interactive Weather Map
Tropical Storm Tracking
New forecast layout! Learn more

10-Day Weather Forecast

Advertisements
Track Severe Weather on mobile